Terminal Aerodrome Forecast
Issued by NWS Pittsburgh, PA

Current Version | Previous Version | Graphics & Text | Print | Product List | Glossary On
Versions: 1 2 3 4 5 6 7 8 9 10 11 12 13 14 15 16 17 18 19 20 21 22 23 24 25 26 27
000
FTUS41 KPBZ 190919 AAB
TAFPIT
TAF AMD
KPIT 190919Z 1909/2012 36006KT P6SM OVC006
     FM191200 34012G20KT 3SM -SHSN OVC008
     FM191700 33013G26KT P6SM VCSH BKN020
     FM192200 31012KT P6SM BKN025
     FM200300 32008KT P6SM SCT020=

USA.gov is the U.S. government's official web portal to all federal, state and local government web resources and services.